Wetterdaten: Woche 03.08.09 - 09.08.09 (KW32)
Datum Zeit Temperatur Luftfeuchte Luftdruck Niederschlag Wind Richtung Sonnenschein Solar Taupunkt Windchill Windben
03.08.2009 00:00 15.5 C 95 % 1016.0 hPa 0.0 l/m 1.0 km/h (0 Bft) NW 0.00 h 0 W/m 14.7 C 15.5 C 2.5 km/h (1 Bft)
03.08.2009 01:00 15.3 C 95 % 1015.8 hPa 0.0 l/m 0.4 km/h (0 Bft) S-SO 0.00 h 0 W/m 14.5 C 15.3 C 1.3 km/h (1 Bft)
03.08.2009 02:00 15.2 C 96 % 1015.4 hPa 0.0 l/m 0.1 km/h (0 Bft) S-SO 0.00 h 0 W/m 14.6 C 15.2 C 0.4 km/h (0 Bft)
03.08.2009 03:00 15.0 C 96 % 1015.3 hPa 0.0 l/m 0.2 km/h (0 Bft) O-SO 0.00 h 0 W/m 14.4 C 15.0 C 1.2 km/h (1 Bft)
03.08.2009 04:00 15.1 C 96 % 1014.9 hPa 0.0 l/m 0.9 km/h (0 Bft) O-SO 0.00 h 0 W/m 14.5 C 15.1 C 2.3 km/h (1 Bft)
03.08.2009 05:00 15.1 C 97 % 1014.8 hPa 0.0 l/m 0.9 km/h (0 Bft) O-SO 0.00 h 0 W/m 14.6 C 15.1 C 1.8 km/h (1 Bft)
03.08.2009 06:00 15.2 C 97 % 1014.7 hPa 0.0 l/m 0.5 km/h (0 Bft) O-SO 0.00 h 11 W/m 14.7 C 15.2 C 1.0 km/h (0 Bft)
03.08.2009 07:00 15.3 C 97 % 1014.7 hPa 0.0 l/m 0.9 km/h (0 Bft) W-NW 0.00 h 37 W/m 14.8 C 15.3 C 2.5 km/h (1 Bft)
03.08.2009 08:00 15.6 C 97 % 1014.9 hPa 0.0 l/m 0.7 km/h (0 Bft) NW 0.00 h 59 W/m 15.2 C 15.6 C 2.3 km/h (1 Bft)
03.08.2009 09:00 16.2 C 97 % 1014.9 hPa 0.0 l/m 1.7 km/h (1 Bft) NW 0.00 h 178 W/m 15.8 C 16.2 C 3.8 km/h (1 Bft)
03.08.2009 10:00 17.2 C 95 % 1015.0 hPa 0.0 l/m 2.1 km/h (1 Bft) W 0.00 h 153 W/m 16.3 C 17.2 C 4.1 km/h (1 Bft)
03.08.2009 11:00 17.3 C 90 % 1015.1 hPa 0.0 l/m 2.9 km/h (1 Bft) W-NW 0.00 h 175 W/m 15.7 C 17.3 C 5.2 km/h (1 Bft)
03.08.2009 12:00 17.7 C 87 % 1015.2 hPa 0.0 l/m 3.2 km/h (1 Bft) NW 0.00 h 247 W/m 15.5 C 17.7 C 5.6 km/h (1 Bft)
03.08.2009 13:00 18.4 C 82 % 1015.1 hPa 0.0 l/m 4.3 km/h (1 Bft) W-NW 0.00 h 254 W/m 15.3 C 18.4 C 7.1 km/h (2 Bft)
03.08.2009 14:00 18.5 C 81 % 1014.9 hPa 0.0 l/m 4.4 km/h (1 Bft) W-NW 0.00 h 248 W/m 15.2 C 18.5 C 7.5 km/h (2 Bft)
03.08.2009 15:00 18.9 C 80 % 1014.8 hPa 0.0 l/m 6.8 km/h (2 Bft) W-NW 0.13 h 336 W/m 15.3 C 18.9 C 10.7 km/h (2 Bft)
03.08.2009 16:00 18.0 C 82 % 1014.9 hPa 0.0 l/m 6.6 km/h (2 Bft) W 0.00 h 175 W/m 14.8 C 18.0 C 10.5 km/h (2 Bft)
03.08.2009 17:00 17.8 C 84 % 1015.3 hPa 0.0 l/m 2.1 km/h (1 Bft) W-NW 0.00 h 96 W/m 15.1 C 17.8 C 4.2 km/h (1 Bft)
03.08.2009 18:00 17.9 C 86 % 1015.3 hPa 0.0 l/m 0.5 km/h (0 Bft) W-NW 0.00 h 88 W/m 15.5 C 17.9 C 2.1 km/h (1 Bft)
03.08.2009 19:00 17.9 C 85 % 1015.6 hPa 0.0 l/m 0.5 km/h (0 Bft) W 0.00 h 53 W/m 15.3 C 17.9 C 1.6 km/h (1 Bft)
03.08.2009 20:00 17.6 C 85 % 1016.1 hPa 0.0 l/m 0.0 km/h (0 Bft) N 0.00 h 20 W/m 15.0 C 17.6 C 0.3 km/h (0 Bft)
03.08.2009 21:00 17.2 C 86 % 1016.7 hPa 0.0 l/m 0.7 km/h (0 Bft) S-SW 0.00 h 0 W/m 14.9 C 17.2 C 1.9 km/h (1 Bft)
03.08.2009 22:00 16.5 C 88 % 1017.2 hPa 0.0 l/m 0.8 km/h (0 Bft) S-SO 0.00 h 0 W/m 14.4 C 16.5 C 2.7 km/h (1 Bft)
03.08.2009 23:00 15.8 C 90 % 1017.6 hPa 0.0 l/m 0.5 km/h (0 Bft) S-SO 0.00 h 0 W/m 14.2 C 15.8 C 2.1 km/h (1 Bft)
04.08.2009 00:00 15.4 C 91 % 1017.9 hPa 0.0 l/m 0.3 km/h (0 Bft) S 0.00 h 0 W/m 14.0 C 15.4 C 1.3 km/h (1 Bft)
04.08.2009 01:00 15.1 C 93 % 1018.0 hPa 0.0 l/m 0.6 km/h (0 Bft) S 0.00 h 0 W/m 14.0 C 15.1 C 2.2 km/h (1 Bft)
04.08.2009 02:00 14.9 C 93 % 1018.0 hPa 0.0 l/m 0.3 km/h (0 Bft) SO 0.00 h 0 W/m 13.8 C 14.9 C 0.7 km/h (0 Bft)
04.08.2009 03:00 14.7 C 94 % 1018.1 hPa 0.0 l/m 0.2 km/h (0 Bft) SO 0.00 h 0 W/m 13.8 C 14.7 C 1.0 km/h (0 Bft)
04.08.2009 04:00 14.2 C 94 % 1018.4 hPa 0.0 l/m 0.4 km/h (0 Bft) SO 0.00 h 0 W/m 13.3 C 14.2 C 1.3 km/h (1 Bft)
04.08.2009 05:00 13.9 C 96 % 1019.0 hPa 0.0 l/m 1.1 km/h (1 Bft) O-SO 0.00 h 0 W/m 13.3 C 13.9 C 2.4 km/h (1 Bft)
04.08.2009 06:00 13.8 C 97 % 1019.4 hPa 0.0 l/m 0.1 km/h (0 Bft) S 0.00 h 17 W/m 13.4 C 13.8 C 0.6 km/h (0 Bft)
04.08.2009 07:00 13.9 C 97 % 1019.7 hPa 0.0 l/m 1.0 km/h (0 Bft) S 0.00 h 61 W/m 13.4 C 13.9 C 2.3 km/h (1 Bft)
04.08.2009 08:00 14.6 C 97 % 1019.8 hPa 0.0 l/m 0.3 km/h (0 Bft) W 0.27 h 179 W/m 14.1 C 14.6 C 1.0 km/h (0 Bft)
04.08.2009 09:00 17.1 C 84 % 1020.0 hPa 0.2 l/m 0.9 km/h (0 Bft) SW 1.00 h 425 W/m 14.3 C 17.1 C 2.4 km/h (1 Bft)
04.08.2009 10:00 19.5 C 73 % 1019.7 hPa 0.0 l/m 1.3 km/h (1 Bft) W-NW 1.00 h 572 W/m 14.5 C 19.5 C 3.6 km/h (1 Bft)
04.08.2009 11:00 20.4 C 67 % 1019.7 hPa 0.0 l/m 3.7 km/h (1 Bft) O-SO 1.00 h 729 W/m 14.0 C 20.4 C 6.6 km/h (2 Bft)
04.08.2009 12:00 21.2 C 63 % 1019.5 hPa 0.0 l/m 2.3 km/h (1 Bft) O-SO 0.57 h 578 W/m 13.9 C 21.2 C 4.9 km/h (1 Bft)
04.08.2009 13:00 22.4 C 58 % 1019.4 hPa 0.0 l/m 4.3 km/h (1 Bft) O-SO 1.00 h 837 W/m 13.6 C 22.4 C 7.6 km/h (2 Bft)
04.08.2009 14:00 22.9 C 53 % 1019.0 hPa 0.0 l/m 6.8 km/h (2 Bft) O-SO 1.00 h 809 W/m 12.8 C 22.9 C 11.1 km/h (2 Bft)
04.08.2009 15:00 23.2 C 45 % 1018.8 hPa 0.0 l/m 6.9 km/h (2 Bft) O-SO 1.00 h 738 W/m 10.8 C 23.2 C 11.2 km/h (2 Bft)
04.08.2009 16:00 23.8 C 45 % 1018.6 hPa 0.0 l/m 5.0 km/h (1 Bft) O-SO 1.00 h 628 W/m 11.3 C 23.8 C 9.3 km/h (2 Bft)
04.08.2009 17:00 23.6 C 46 % 1018.3 hPa 0.0 l/m 7.5 km/h (2 Bft) O-SO 1.00 h 484 W/m 11.2 C 23.6 C 11.9 km/h (2 Bft)
04.08.2009 18:00 23.5 C 46 % 1018.4 hPa 0.0 l/m 5.3 km/h (1 Bft) O-SO 1.00 h 321 W/m 11.1 C 23.5 C 8.8 km/h (2 Bft)
04.08.2009 19:00 22.9 C 48 % 1018.2 hPa 0.0 l/m 3.4 km/h (1 Bft) O-SO 0.93 h 155 W/m 11.4 C 22.9 C 6.6 km/h (2 Bft)
04.08.2009 20:00 21.7 C 55 % 1018.4 hPa 0.0 l/m 0.9 km/h (0 Bft) O-NO 0.03 h 23 W/m 12.2 C 21.7 C 2.7 km/h (1 Bft)
04.08.2009 21:00 19.4 C 66 % 1018.9 hPa 0.0 l/m 1.7 km/h (1 Bft) O-SO 0.00 h 0 W/m 12.8 C 19.4 C 2.7 km/h (1 Bft)
04.08.2009 22:00 17.5 C 75 % 1019.2 hPa 0.0 l/m 1.1 km/h (0 Bft) O-SO 0.00 h 0 W/m 12.9 C 17.5 C 2.1 km/h (1 Bft)
04.08.2009 23:00 16.4 C 78 % 1019.3 hPa 0.0 l/m 0.4 km/h (0 Bft) N-NO 0.00 h 0 W/m 12.5 C 16.4 C 0.9 km/h (0 Bft)
05.08.2009 00:00 15.4 C 81 % 1019.5 hPa 0.0 l/m 0.4 km/h (0 Bft) N-NW 0.00 h 0 W/m 12.2 C 15.4 C 1.4 km/h (1 Bft)
05.08.2009 01:00 14.7 C 84 % 1019.4 hPa 0.0 l/m 0.0 km/h (0 Bft) N 0.00 h 0 W/m 12.0 C 14.7 C 0.7 km/h (0 Bft)
05.08.2009 02:00 14.0 C 87 % 1019.2 hPa 0.0 l/m 0.9 km/h (0 Bft) N-NO 0.00 h 0 W/m 11.8 C 14.0 C 2.1 km/h (1 Bft)
05.08.2009 03:00 13.4 C 89 % 1019.0 hPa 0.0 l/m 1.4 km/h (1 Bft) O-NO 0.00 h 0 W/m 11.6 C 13.4 C 2.7 km/h (1 Bft)
05.08.2009 04:00 12.7 C 91 % 1018.9 hPa 0.0 l/m 3.0 km/h (1 Bft) O 0.00 h 0 W/m 11.2 C 12.7 C 4.3 km/h (1 Bft)
05.08.2009 05:00 12.1 C 92 % 1019.1 hPa 0.0 l/m 0.3 km/h (0 Bft) O-SO 0.00 h 0 W/m 10.9 C 12.1 C 0.5 km/h (0 Bft)
05.08.2009 06:00 11.8 C 93 % 1019.2 hPa 0.0 l/m 0.1 km/h (0 Bft) O-SO 0.02 h 15 W/m 10.7 C 11.8 C 0.2 km/h (0 Bft)
05.08.2009 07:00 12.0 C 95 % 1019.5 hPa 0.0 l/m 0.0 km/h (0 Bft) N 0.38 h 85 W/m 11.2 C 12.0 C 0.2 km/h (0 Bft)
05.08.2009 08:00 15.4 C 93 % 1019.0 hPa 0.0 l/m 0.4 km/h (0 Bft) O-SO 1.00 h 277 W/m 14.3 C 15.4 C 1.5 km/h (1 Bft)
05.08.2009 09:00 18.9 C 74 % 1018.8 hPa 0.0 l/m 0.7 km/h (0 Bft) SW 1.00 h 442 W/m 14.1 C 18.9 C 2.1 km/h (1 Bft)
05.08.2009 10:00 21.0 C 65 % 1018.5 hPa 0.0 l/m 2.7 km/h (1 Bft) O-SO 1.00 h 592 W/m 14.1 C 21.0 C 5.9 km/h (2 Bft)
05.08.2009 11:00 22.4 C 60 % 1018.3 hPa 0.0 l/m 5.2 km/h (1 Bft) O-SO 1.00 h 716 W/m 14.2 C 22.4 C 9.3 km/h (2 Bft)
05.08.2009 12:00 23.9 C 55 % 1018.1 hPa 0.0 l/m 4.5 km/h (1 Bft) N-NO 1.00 h 742 W/m 14.2 C 23.9 C 9.5 km/h (2 Bft)
05.08.2009 13:00 24.7 C 50 % 1017.7 hPa 0.0 l/m 6.2 km/h (2 Bft) O-SO 1.00 h 810 W/m 13.6 C 24.7 C 12.8 km/h (3 Bft)
05.08.2009 14:00 25.8 C 48 % 1017.4 hPa 0.0 l/m 5.2 km/h (1 Bft) O 1.00 h 741 W/m 13.9 C 25.8 C 10.2 km/h (2 Bft)
05.08.2009 15:00 26.6 C 48 % 1017.2 hPa 0.0 l/m 5.1 km/h (1 Bft) O-SO 1.00 h 756 W/m 14.5 C 26.6 C 9.4 km/h (2 Bft)
05.08.2009 16:00 26.4 C 47 % 1017.0 hPa 0.0 l/m 8.8 km/h (2 Bft) O-SO 0.97 h 593 W/m 14.2 C 26.4 C 13.8 km/h (3 Bft)
05.08.2009 17:00 26.4 C 47 % 1017.1 hPa 0.0 l/m 3.2 km/h (1 Bft) O-SO 0.97 h 456 W/m 14.3 C 26.4 C 6.6 km/h (2 Bft)
05.08.2009 18:00 26.2 C 48 % 1017.1 hPa 0.0 l/m 6.1 km/h (2 Bft) O-SO 1.00 h 309 W/m 14.4 C 26.2 C 9.7 km/h (2 Bft)
05.08.2009 19:00 25.3 C 53 % 1016.9 hPa 0.0 l/m 2.7 km/h (1 Bft) O-SO 0.75 h 142 W/m 15.0 C 25.3 C 4.8 km/h (1 Bft)
05.08.2009 20:00 24.1 C 59 % 1016.9 hPa 0.0 l/m 1.3 km/h (1 Bft) O-SO 0.20 h 32 W/m 15.6 C 24.1 C 2.5 km/h (1 Bft)
05.08.2009 21:00 22.0 C 67 % 1017.0 hPa 0.0 l/m 2.6 km/h (1 Bft) O-SO 0.00 h 0 W/m 15.5 C 22.0 C 3.8 km/h (1 Bft)
05.08.2009 22:00 20.2 C 74 % 1017.4 hPa 0.0 l/m 0.0 km/h (0 Bft) O-SO 0.00 h 0 W/m 15.4 C 20.2 C 0.2 km/h (0 Bft)
05.08.2009 23:00 18.9 C 79 % 1017.4 hPa 0.0 l/m 0.0 km/h (0 Bft) N 0.00 h 0 W/m 15.1 C 18.9 C 0.3 km/h (0 Bft)
06.08.2009 00:00 17.8 C 83 % 1017.6 hPa 0.0 l/m 0.0 km/h (0 Bft) O-SO 0.00 h 0 W/m 14.9 C 17.8 C 0.3 km/h (0 Bft)
06.08.2009 01:00 16.8 C 86 % 1017.4 hPa 0.0 l/m 0.9 km/h (0 Bft) O-SO 0.00 h 0 W/m 14.5 C 16.8 C 2.3 km/h (1 Bft)
06.08.2009 02:00 16.1 C 88 % 1017.3 hPa 0.0 l/m 1.3 km/h (1 Bft) O-SO 0.00 h 0 W/m 14.0 C 16.1 C 2.9 km/h (1 Bft)
06.08.2009 03:00 15.5 C 89 % 1017.2 hPa 0.0 l/m 0.9 km/h (0 Bft) O-SO 0.00 h 0 W/m 13.7 C 15.5 C 2.3 km/h (1 Bft)
06.08.2009 04:00 14.9 C 90 % 1017.3 hPa 0.0 l/m 1.3 km/h (1 Bft) O-SO 0.00 h 0 W/m 13.3 C 14.9 C 2.2 km/h (1 Bft)
06.08.2009 05:00 14.3 C 91 % 1017.3 hPa 0.0 l/m 1.8 km/h (1 Bft) O-SO 0.00 h 0 W/m 12.9 C 14.3 C 3.2 km/h (1 Bft)
06.08.2009 06:00 13.8 C 93 % 1017.5 hPa 0.0 l/m 0.8 km/h (0 Bft) O-SO 0.00 h 14 W/m 12.6 C 13.8 C 1.6 km/h (1 Bft)
06.08.2009 07:00 14.0 C 95 % 1017.7 hPa 0.0 l/m 0.0 km/h (0 Bft) O-SO 0.35 h 78 W/m 13.2 C 14.0 C 0.5 km/h (0 Bft)
06.08.2009 08:00 17.4 C 90 % 1017.4 hPa 0.0 l/m 0.3 km/h (0 Bft) O-SO 1.00 h 267 W/m 15.8 C 17.4 C 1.1 km/h (1 Bft)
06.08.2009 09:00 20.6 C 73 % 1017.3 hPa 0.0 l/m 1.1 km/h (1 Bft) O-NO 1.00 h 429 W/m 15.5 C 20.6 C 2.9 km/h (1 Bft)
06.08.2009 10:00 22.1 C 68 % 1017.0 hPa 0.0 l/m 2.1 km/h (1 Bft) O-SO 1.00 h 575 W/m 15.9 C 22.1 C 5.0 km/h (1 Bft)
06.08.2009 11:00 23.8 C 64 % 1016.9 hPa 0.0 l/m 2.4 km/h (1 Bft) SO 1.00 h 691 W/m 16.6 C 23.8 C 4.9 km/h (1 Bft)
06.08.2009 12:00 24.7 C 60 % 1016.8 hPa 0.0 l/m 3.8 km/h (1 Bft) O-SO 1.00 h 773 W/m 16.5 C 24.7 C 6.8 km/h (2 Bft)
06.08.2009 13:00 25.9 C 56 % 1016.3 hPa 0.0 l/m 5.2 km/h (1 Bft) O-SO 1.00 h 809 W/m 16.6 C 25.9 C 8.9 km/h (2 Bft)
06.08.2009 14:00 27.2 C 55 % 1015.8 hPa 0.0 l/m 5.0 km/h (1 Bft) O-SO 1.00 h 785 W/m 17.2 C 27.2 C 9.2 km/h (2 Bft)
06.08.2009 15:00 27.5 C 55 % 1015.4 hPa 0.0 l/m 6.7 km/h (2 Bft) O-SO 1.00 h 718 W/m 17.5 C 27.5 C 10.6 km/h (2 Bft)
06.08.2009 16:00 27.9 C 52 % 1015.2 hPa 0.0 l/m 5.0 km/h (1 Bft) O-SO 1.00 h 600 W/m 17.2 C 27.9 C 8.5 km/h (2 Bft)
06.08.2009 17:00 27.8 C 51 % 1015.2 hPa 0.0 l/m 5.9 km/h (2 Bft) O-SO 1.00 h 462 W/m 16.8 C 27.8 C 9.1 km/h (2 Bft)
06.08.2009 18:00 27.6 C 51 % 1014.8 hPa 0.0 l/m 5.5 km/h (1 Bft) O-SO 1.00 h 315 W/m 16.4 C 27.6 C 8.7 km/h (2 Bft)
06.08.2009 19:00 27.0 C 53 % 1014.7 hPa 0.0 l/m 1.9 km/h (1 Bft) O 0.88 h 145 W/m 16.4 C 27.0 C 3.8 km/h (1 Bft)
06.08.2009 20:00 25.5 C 60 % 1014.5 hPa 0.0 l/m 0.7 km/h (0 Bft) O 0.00 h 18 W/m 17.1 C 25.5 C 2.4 km/h (1 Bft)
06.08.2009 21:00 23.1 C 72 % 1014.8 hPa 0.0 l/m 0.7 km/h (0 Bft) O 0.00 h 0 W/m 17.7 C 23.1 C 1.5 km/h (1 Bft)
06.08.2009 22:00 21.1 C 79 % 1015.1 hPa 0.0 l/m 0.3 km/h (0 Bft) O 0.00 h 0 W/m 17.2 C 21.1 C 1.3 km/h (1 Bft)
06.08.2009 23:00 19.6 C 84 % 1015.1 hPa 0.0 l/m 0.9 km/h (0 Bft) O 0.00 h 0 W/m 16.9 C 19.6 C 2.1 km/h (1 Bft)
07.08.2009 00:00 18.7 C 88 % 1015.1 hPa 0.0 l/m 1.5 km/h (1 Bft) O 0.00 h 0 W/m 16.6 C 18.7 C 2.9 km/h (1 Bft)
07.08.2009 01:00 18.1 C 89 % 1015.1 hPa 0.0 l/m 0.9 km/h (0 Bft) O 0.00 h 0 W/m 16.4 C 18.1 C 2.1 km/h (1 Bft)
07.08.2009 02:00 17.3 C 90 % 1015.0 hPa 0.0 l/m 1.7 km/h (1 Bft) O 0.00 h 0 W/m 15.7 C 17.3 C 2.9 km/h (1 Bft)
07.08.2009 03:00 16.5 C 91 % 1014.9 hPa 0.0 l/m 2.7 km/h (1 Bft) O-SO 0.00 h 0 W/m 15.1 C 16.5 C 4.2 km/h (1 Bft)
07.08.2009 04:00 16.0 C 91 % 1015.0 hPa 0.0 l/m 1.1 km/h (0 Bft) O 0.00 h 0 W/m 14.5 C 16.0 C 2.5 km/h (1 Bft)
07.08.2009 05:00 15.4 C 92 % 1015.1 hPa 0.0 l/m 0.4 km/h (0 Bft) O 0.00 h 0 W/m 14.1 C 15.4 C 1.3 km/h (1 Bft)
07.08.2009 06:00 14.9 C 93 % 1015.4 hPa 0.0 l/m 0.1 km/h (0 Bft) O 0.02 h 17 W/m 13.8 C 14.9 C 0.4 km/h (0 Bft)
07.08.2009 07:00 15.1 C 95 % 1015.7 hPa 0.0 l/m 0.0 km/h (0 Bft) N 0.33 h 82 W/m 14.2 C 15.1 C 0.0 km/h (0 Bft)
07.08.2009 08:00 18.1 C 92 % 1015.7 hPa 0.0 l/m 0.1 km/h (0 Bft) O 0.97 h 253 W/m 16.8 C 18.1 C 0.2 km/h (0 Bft)
07.08.2009 09:00 20.9 C 78 % 1015.5 hPa 0.0 l/m 0.8 km/h (0 Bft) O 1.00 h 419 W/m 16.8 C 20.9 C 2.1 km/h (1 Bft)
07.08.2009 10:00 23.3 C 69 % 1015.2 hPa 0.0 l/m 1.6 km/h (1 Bft) N 1.00 h 566 W/m 17.3 C 23.3 C 3.4 km/h (1 Bft)
07.08.2009 11:00 24.9 C 63 % 1015.2 hPa 0.0 l/m 2.5 km/h (1 Bft) NW 0.92 h 655 W/m 17.4 C 24.9 C 4.5 km/h (1 Bft)
07.08.2009 12:00 26.3 C 61 % 1014.9 hPa 0.0 l/m 2.0 km/h (1 Bft) W-NW 1.00 h 763 W/m 18.1 C 26.3 C 4.0 km/h (1 Bft)
07.08.2009 13:00 28.1 C 58 % 1014.4 hPa 0.0 l/m 1.9 km/h (1 Bft) SW 1.00 h 800 W/m 19.0 C 28.1 C 4.1 km/h (1 Bft)
07.08.2009 14:00 29.0 C 50 % 1014.4 hPa 0.0 l/m 4.7 km/h (1 Bft) W 1.00 h 742 W/m 17.6 C 29.0 C 8.5 km/h (2 Bft)
07.08.2009 15:00 29.5 C 48 % 1014.2 hPa 0.0 l/m 4.9 km/h (1 Bft) W 0.72 h 632 W/m 17.4 C 29.5 C 8.0 km/h (2 Bft)
07.08.2009 16:00 29.8 C 48 % 1014.0 hPa 0.0 l/m 5.2 km/h (1 Bft) W-SW 0.85 h 542 W/m 17.4 C 29.8 C 8.7 km/h (2 Bft)
07.08.2009 17:00 30.6 C 45 % 1013.5 hPa 0.0 l/m 5.2 km/h (1 Bft) W 1.00 h 467 W/m 17.1 C 30.6 C 8.9 km/h (2 Bft)
07.08.2009 18:00 29.3 C 45 % 1013.4 hPa 0.0 l/m 6.0 km/h (2 Bft) W 0.52 h 209 W/m 16.0 C 29.3 C 9.9 km/h (2 Bft)
07.08.2009 19:00 27.4 C 54 % 1013.9 hPa 0.0 l/m 8.0 km/h (2 Bft) W-NW 0.37 h 112 W/m 17.3 C 27.4 C 13.0 km/h (3 Bft)
07.08.2009 20:00 26.0 C 58 % 1014.4 hPa 0.0 l/m 3.4 km/h (1 Bft) W-NW 0.12 h 26 W/m 17.2 C 26.0 C 6.0 km/h (2 Bft)
07.08.2009 21:00 24.6 C 63 % 1014.9 hPa 0.0 l/m 2.3 km/h (1 Bft) W-NW 0.00 h 0 W/m 17.0 C 24.6 C 4.8 km/h (1 Bft)
07.08.2009 22:00 23.2 C 68 % 1015.3 hPa 0.0 l/m 1.6 km/h (1 Bft) N-NW 0.00 h 0 W/m 16.9 C 23.2 C 3.6 km/h (1 Bft)
07.08.2009 23:00 22.2 C 72 % 1015.5 hPa 0.0 l/m 1.3 km/h (1 Bft) N-NW 0.00 h 0 W/m 16.9 C 22.2 C 3.3 km/h (1 Bft)
08.08.2009 00:00 21.5 C 77 % 1015.6 hPa 0.0 l/m 0.5 km/h (0 Bft) S-SO 0.00 h 0 W/m 17.3 C 21.5 C 1.7 km/h (1 Bft)
08.08.2009 01:00 21.2 C 79 % 1015.3 hPa 0.0 l/m 0.7 km/h (0 Bft) W-NW 0.00 h 0 W/m 17.4 C 21.2 C 1.8 km/h (1 Bft)
08.08.2009 02:00 20.7 C 82 % 1015.2 hPa 0.0 l/m 1.2 km/h (1 Bft) W-NW 0.00 h 0 W/m 17.5 C 20.7 C 2.7 km/h (1 Bft)
08.08.2009 03:00 20.1 C 84 % 1014.9 hPa 0.0 l/m 0.3 km/h (0 Bft) W-NW 0.00 h 0 W/m 17.3 C 20.1 C 1.1 km/h (1 Bft)
08.08.2009 04:00 19.1 C 89 % 1014.7 hPa 0.0 l/m 1.3 km/h (1 Bft) O 0.00 h 0 W/m 17.1 C 19.1 C 2.6 km/h (1 Bft)
08.08.2009 05:00 18.5 C 91 % 1014.5 hPa 0.0 l/m 1.1 km/h (1 Bft) O-SO 0.00 h 0 W/m 17.0 C 18.5 C 1.8 km/h (1 Bft)
08.08.2009 06:00 18.2 C 92 % 1014.7 hPa 0.0 l/m 0.0 km/h (0 Bft) N 0.00 h 7 W/m 16.9 C 18.2 C 0.0 km/h (0 Bft)
08.08.2009 07:00 18.3 C 93 % 1015.1 hPa 0.0 l/m 0.0 km/h (0 Bft) N 0.00 h 45 W/m 17.1 C 18.3 C 0.0 km/h (0 Bft)
08.08.2009 08:00 19.1 C 93 % 1015.4 hPa 0.0 l/m 1.2 km/h (1 Bft) O-SO 0.00 h 126 W/m 17.9 C 19.1 C 2.4 km/h (1 Bft)
08.08.2009 09:00 20.4 C 89 % 1015.5 hPa 0.0 l/m 1.7 km/h (1 Bft) N 0.00 h 178 W/m 18.5 C 20.4 C 3.7 km/h (1 Bft)
08.08.2009 10:00 21.6 C 84 % 1015.4 hPa 0.0 l/m 3.7 km/h (1 Bft) W-NW 0.00 h 157 W/m 18.7 C 21.6 C 6.1 km/h (2 Bft)
08.08.2009 11:00 21.3 C 83 % 1015.6 hPa 0.0 l/m 2.9 km/h (1 Bft) W-SW 0.00 h 66 W/m 18.2 C 21.3 C 5.7 km/h (1 Bft)
08.08.2009 12:00 19.9 C 87 % 1016.1 hPa 2.8 l/m 3.2 km/h (1 Bft) W-NW 0.00 h 34 W/m 17.7 C 19.9 C 5.9 km/h (2 Bft)
08.08.2009 13:00 19.1 C 91 % 1015.9 hPa 1.6 l/m 3.4 km/h (1 Bft) W-NW 0.00 h 86 W/m 17.6 C 19.1 C 6.5 km/h (2 Bft)
08.08.2009 14:00 19.2 C 94 % 1016.1 hPa 0.8 l/m 3.4 km/h (1 Bft) N-NW 0.00 h 131 W/m 18.1 C 19.2 C 6.1 km/h (2 Bft)
08.08.2009 15:00 19.4 C 95 % 1016.4 hPa 1.4 l/m 0.8 km/h (0 Bft) W-SW 0.00 h 105 W/m 18.6 C 19.4 C 2.5 km/h (1 Bft)
08.08.2009 16:00 19.5 C 95 % 1016.5 hPa 0.8 l/m 0.8 km/h (0 Bft) S-SO 0.00 h 133 W/m 18.6 C 19.5 C 2.5 km/h (1 Bft)
08.08.2009 17:00 20.1 C 95 % 1016.5 hPa 0.2 l/m 0.5 km/h (0 Bft) W 0.00 h 130 W/m 19.3 C 20.1 C 1.9 km/h (1 Bft)
08.08.2009 18:00 19.9 C 93 % 1016.6 hPa 0.0 l/m 1.1 km/h (1 Bft) W-NW 0.00 h 110 W/m 18.8 C 19.9 C 2.4 km/h (1 Bft)
08.08.2009 19:00 20.0 C 93 % 1016.4 hPa 0.0 l/m 0.0 km/h (0 Bft) S 0.00 h 61 W/m 18.8 C 20.0 C 0.6 km/h (0 Bft)
08.08.2009 20:00 19.4 C 92 % 1016.2 hPa 0.0 l/m 0.0 km/h (0 Bft) S 0.00 h 17 W/m 18.1 C 19.4 C 0.2 km/h (0 Bft)
08.08.2009 21:00 18.8 C 94 % 1016.6 hPa 0.0 l/m 0.0 km/h (0 Bft) N 0.00 h 0 W/m 17.7 C 18.8 C 0.0 km/h (0 Bft)
08.08.2009 22:00 18.4 C 95 % 1016.8 hPa 0.0 l/m 0.0 km/h (0 Bft) N 0.00 h 0 W/m 17.6 C 18.4 C 0.0 km/h (0 Bft)
08.08.2009 23:00 18.2 C 96 % 1016.6 hPa 0.0 l/m 0.0 km/h (0 Bft) N 0.00 h 0 W/m 17.5 C 18.2 C 0.0 km/h (0 Bft)
09.08.2009 00:00 18.0 C 97 % 1016.7 hPa 0.0 l/m 0.2 km/h (0 Bft) S 0.00 h 0 W/m 17.5 C 18.0 C 0.8 km/h (0 Bft)
09.08.2009 01:00 17.9 C 97 % 1016.9 hPa 0.0 l/m 0.1 km/h (0 Bft) S 0.00 h 0 W/m 17.4 C 17.9 C 0.2 km/h (0 Bft)
09.08.2009 02:00 17.7 C 97 % 1016.7 hPa 0.0 l/m 0.1 km/h (0 Bft) S 0.00 h 0 W/m 17.2 C 17.7 C 0.3 km/h (0 Bft)
09.08.2009 03:00 17.3 C 97 % 1016.2 hPa 0.0 l/m 0.4 km/h (0 Bft) S 0.00 h 0 W/m 16.9 C 17.3 C 1.7 km/h (1 Bft)
09.08.2009 04:00 17.2 C 97 % 1016.0 hPa 0.0 l/m 0.0 km/h (0 Bft) N 0.00 h 0 W/m 16.7 C 17.2 C 0.5 km/h (0 Bft)
09.08.2009 05:00 16.4 C 97 % 1016.0 hPa 0.0 l/m 0.2 km/h (0 Bft) NW 0.00 h 0 W/m 15.9 C 16.4 C 0.8 km/h (0 Bft)
09.08.2009 06:00 15.8 C 97 % 1016.3 hPa 0.0 l/m 0.5 km/h (0 Bft) NW 0.02 h 15 W/m 15.3 C 15.8 C 1.7 km/h (1 Bft)
09.08.2009 07:00 16.1 C 98 % 1016.3 hPa 0.0 l/m 0.3 km/h (0 Bft) NW 0.00 h 69 W/m 15.7 C 16.1 C 1.1 km/h (0 Bft)
09.08.2009 08:00 16.7 C 98 % 1016.3 hPa 0.0 l/m 0.8 km/h (0 Bft) NW 0.13 h 136 W/m 16.3 C 16.7 C 2.7 km/h (1 Bft)
09.08.2009 09:00 18.5 C 95 % 1016.1 hPa 0.0 l/m 0.9 km/h (0 Bft) NW 0.93 h 379 W/m 17.7 C 18.5 C 2.5 km/h (1 Bft)
09.08.2009 10:00 20.4 C 87 % 1015.5 hPa 0.0 l/m 1.6 km/h (1 Bft) N-NW 0.92 h 534 W/m 18.1 C 20.4 C 3.4 km/h (1 Bft)
09.08.2009 11:00 21.7 C 80 % 1015.3 hPa 0.0 l/m 1.2 km/h (1 Bft) N-NW 0.30 h 453 W/m 17.9 C 21.7 C 3.3 km/h (1 Bft)
09.08.2009 12:00 23.2 C 73 % 1015.0 hPa 0.0 l/m 0.7 km/h (0 Bft) O-NO 0.70 h 648 W/m 18.1 C 23.2 C 2.7 km/h (1 Bft)
09.08.2009 13:00 24.4 C 68 % 1014.6 hPa 0.0 l/m 3.6 km/h (1 Bft) O-SO 1.00 h 850 W/m 18.1 C 24.4 C 6.6 km/h (2 Bft)
09.08.2009 14:00 25.3 C 63 % 1014.1 hPa 0.0 l/m 4.0 km/h (1 Bft) O-SO 1.00 h 793 W/m 17.8 C 25.3 C 7.4 km/h (2 Bft)
09.08.2009 15:00 25.7 C 61 % 1013.7 hPa 0.0 l/m 5.0 km/h (1 Bft) O-SO 1.00 h 645 W/m 17.5 C 25.7 C 8.5 km/h (2 Bft)
09.08.2009 16:00 25.9 C 59 % 1013.4 hPa 0.0 l/m 5.3 km/h (1 Bft) O-SO 1.00 h 526 W/m 17.2 C 25.9 C 8.4 km/h (2 Bft)
09.08.2009 17:00 25.8 C 60 % 1013.0 hPa 0.0 l/m 5.2 km/h (1 Bft) O-SO 1.00 h 410 W/m 17.4 C 25.8 C 8.8 km/h (2 Bft)
09.08.2009 18:00 25.5 C 60 % 1013.0 hPa 0.0 l/m 3.6 km/h (1 Bft) SO 0.87 h 240 W/m 17.0 C 25.5 C 6.0 km/h (2 Bft)
09.08.2009 19:00 25.2 C 63 % 1012.7 hPa 0.0 l/m 0.9 km/h (0 Bft) O-SO 0.62 h 115 W/m 17.6 C 25.2 C 2.2 km/h (1 Bft)
09.08.2009 20:00 24.2 C 69 % 1012.7 hPa 0.0 l/m 0.5 km/h (0 Bft) O-SO 0.00 h 21 W/m 18.2 C 24.2 C 1.6 km/h (1 Bft)
09.08.2009 21:00 21.9 C 78 % 1013.5 hPa 0.0 l/m 1.6 km/h (1 Bft) O-SO 0.00 h 0 W/m 18.0 C 21.9 C 3.0 km/h (1 Bft)
09.08.2009 22:00 20.6 C 85 % 1014.1 hPa 0.0 l/m 1.1 km/h (1 Bft) O-SO 0.00 h 0 W/m 17.9 C 20.6 C 2.1 km/h (1 Bft)
09.08.2009 23:00 19.9 C 88 % 1014.1 hPa 0.0 l/m 0.3 km/h (0 Bft) O-SO 0.00 h 0 W/m 17.7 C 19.9 C 1.2 km/h (1 Bft)
Min-Datum _ 05.08.09 04.08.09 09.08.09 - 03.08.09 - - - 04.08.09 05.08.09 03.08.09
_ Min-Zeit 06:29 15:28 20:00 - 00:01 - - - 15:28 06:29 00:03
Minimum _ 11.7 C 41 % 1012.5 hPa - 0.0 km/h (0 Bft) - - - 9.2 C 11.7 C 0.0 km/h (0 Bft)
Max-Datum _ 07.08.09 09.08.09 04.08.09 08.08.09 03.08.09 - 03.08.09 04.08.09 07.08.09 07.08.09 05.08.09
_ Max-Zeit 17:18 08:53 09:30 12:15 16:11 - 15:34 12:13 13:54 17:18 16:06
Maximum _ 30.9 C 99 % 1020.1 hPa 2.8 l/m 17.4 km/h
W (3 Bft)
- 0.02 h 905 W/m 20.6 C 30.9 C 26.1 km/h
O-SO (4 Bft)
Durchschnitt _ 19.9 C 78 % 1016.3 hPa #7.8 l/m 2.0 km/h (1 Bft) O-SO #55:44 h 339 W/m 15.6 C 19.9 C 3.9 km/h (1 Bft)
© Kaiko 2009